Time;durP1;ratioP1;P1;durP2;ratioP2;P2;SDS_P1;SDS_P2;PMS_P1;PMS_P2;Temp;Humidity;BMP_temperature;BMP_pressure;BME280_temperature;BME280_humidity;BME280_pressure;Samples;Min_cycle;Max_cycle;Signal;HPM_P1;HPM_P2
2023/12/07 00:01:02;;;;;;;0.80;0.80;;;-0.20;99.90;1.50;96556.00;;;;5007487;28;20464;-89
2023/12/07 00:03:51;;;;;;;0.80;0.80;;;-0.30;99.90;1.60;96562.00;;;;5006677;28;20430;-89
2023/12/07 00:06:40;;;;;;;1.20;1.20;;;-0.40;99.90;2.00;96568.00;;;;4996164;28;20461;-89
2023/12/07 00:09:29;;;;;;;0.70;0.70;;;-0.40;99.90;1.60;96556.00;;;;5009955;28;20421;-89
2023/12/07 00:12:18;;;;;;;2.00;1.73;;;-0.50;99.90;1.50;96554.00;;;;5009161;28;20393;-89
2023/12/07 00:15:10;;;;;;;6.00;3.10;;;-0.40;99.90;1.60;96561.00;;;;5003639;28;20396;-88
2023/12/07 00:18:00;;;;;;;1.70;1.60;;;-0.50;99.90;1.50;96560.00;;;;5002781;28;20217;-89
2023/12/07 00:20:49;;;;;;;1.60;1.50;;;-0.50;99.90;0.90;96553.00;;;;5005357;28;20446;-88
2023/12/07 00:23:38;;;;;;;0.80;0.80;;;-0.60;99.90;1.60;96565.00;;;;5007939;28;20942;-88
2023/12/07 00:26:27;;;;;;;0.97;0.97;;;-0.70;99.90;1.60;96564.00;;;;5001374;28;20470;-88
2023/12/07 00:29:16;;;;;;;1.87;1.80;;;-0.70;99.90;1.80;96571.00;;;;5006955;28;20414;-86
2023/12/07 00:32:07;;;;;;;1.30;1.23;;;-0.70;99.90;1.80;96566.00;;;;5011340;28;20444;-89
2023/12/07 00:34:56;;;;;;;1.83;1.73;;;-0.70;99.90;1.10;96571.00;;;;5011448;28;20434;-89
2023/12/07 00:37:45;;;;;;;1.10;1.10;;;-0.80;99.90;1.00;96565.00;;;;5009101;28;20430;-89
2023/12/07 00:40:36;;;;;;;1.00;1.00;;;-0.90;99.90;1.60;96568.00;;;;5005229;28;20454;-90
2023/12/07 00:43:26;;;;;;;0.90;0.90;;;-0.90;99.90;1.20;96569.00;;;;5002286;28;20435;-90
2023/12/07 00:46:15;;;;;;;0.93;0.93;;;-0.90;99.90;1.30;96576.00;;;;5013492;28;20471;-89
2023/12/07 00:49:05;;;;;;;1.30;1.30;;;-0.90;99.90;0.90;96560.00;;;;5012970;28;20437;-89
2023/12/07 00:51:54;;;;;;;1.13;1.13;;;-1.00;99.90;1.30;96573.00;;;;5010073;28;20448;-89
2023/12/07 00:54:44;;;;;;;0.70;0.70;;;-1.10;99.90;1.00;96566.00;;;;5007246;28;20437;-89
2023/12/07 00:57:32;;;;;;;0.80;0.80;;;-1.10;99.90;0.60;96571.00;;;;5008925;28;20437;-89
2023/12/07 01:00:21;;;;;;;0.90;0.90;;;-1.20;99.90;0.30;96566.00;;;;5008781;28;20462;-88
2023/12/07 01:03:11;;;;;;;0.70;0.70;;;-1.30;99.90;0.20;96567.00;;;;5001353;28;20434;-88
2023/12/07 01:06:01;;;;;;;1.00;1.00;;;-1.40;99.90;0.70;96557.00;;;;5007062;28;20465;-89
2023/12/07 01:08:50;;;;;;;1.00;1.00;;;-1.40;99.90;1.00;96568.00;;;;5006429;28;21029;-89
2023/12/07 01:11:40;;;;;;;0.80;0.80;;;-1.40;99.90;1.10;96561.00;;;;5006850;28;20458;-88
2023/12/07 01:14:29;;;;;;;1.00;1.00;;;-1.40;99.90;1.20;96572.00;;;;5008596;28;20797;-88
2023/12/07 01:17:18;;;;;;;0.70;0.70;;;-1.30;99.90;1.50;96579.00;;;;5010743;28;20451;-88
2023/12/07 01:20:12;;;;;;;0.73;0.73;;;-1.30;99.90;1.20;96580.00;;;;5012144;28;20454;-89
2023/12/07 01:23:02;;;;;;;0.90;0.90;;;-1.30;99.90;1.10;96572.00;;;;5010055;28;20450;-89
2023/12/07 01:25:51;;;;;;;1.03;1.03;;;-1.30;99.90;1.40;96578.00;;;;5003754;28;20478;-88
2023/12/07 01:28:40;;;;;;;1.07;1.07;;;-1.20;99.90;1.50;96579.00;;;;5009548;28;20437;-89
2023/12/07 01:31:29;;;;;;;0.90;0.90;;;-1.20;99.90;1.50;96581.00;;;;5000423;28;20442;-88
2023/12/07 01:34:19;;;;;;;0.80;0.80;;;-1.20;99.90;1.50;96581.00;;;;5005038;28;20521;-88
2023/12/07 01:37:08;;;;;;;0.60;0.60;;;-1.20;99.90;1.40;96591.00;;;;5010307;28;20418;-88
2023/12/07 01:39:58;;;;;;;0.80;0.80;;;-1.10;99.90;1.20;96580.00;;;;5003825;28;20468;-88
2023/12/07 01:42:56;;;;;;;1.00;1.00;;;-1.20;99.90;1.40;96582.00;;;;5004759;28;20430;-88
2023/12/07 01:45:45;;;;;;;1.00;1.00;;;-1.20;99.90;1.50;96587.00;;;;5004224;28;20472;-88
2023/12/07 01:48:34;;;;;;;0.80;0.80;;;-1.20;99.90;1.60;96582.00;;;;5004316;28;20450;-89
2023/12/07 01:51:23;;;;;;;0.60;0.60;;;-1.20;99.90;1.50;96593.00;;;;5005380;28;20458;-88
2023/12/07 01:54:12;;;;;;;0.60;0.60;;;-1.20;99.90;1.50;96592.00;;;;5004685;28;20425;-88
2023/12/07 01:57:03;;;;;;;0.90;0.90;;;-1.20;99.90;1.60;96585.00;;;;5000517;28;20453;-88
2023/12/07 01:59:52;;;;;;;0.80;0.80;;;-1.20;99.90;0.70;96580.00;;;;5005364;28;20450;-88
2023/12/07 02:02:41;;;;;;;0.60;0.60;;;-1.30;99.90;0.30;96591.00;;;;5007026;28;20448;-87
2023/12/07 02:05:30;;;;;;;0.90;0.90;;;-1.50;99.90;1.10;96596.00;;;;5010239;28;20433;-88
2023/12/07 02:08:19;;;;;;;0.70;0.70;;;-1.50;99.90;0.80;96588.00;;;;5006843;28;20438;-88
2023/12/07 02:11:09;;;;;;;0.83;0.83;;;-1.50;99.90;0.70;96589.00;;;;5003495;28;20446;-88
2023/12/07 02:14:00;;;;;;;0.83;0.83;;;-1.50;99.90;1.00;96603.00;;;;5002822;28;20469;-88
2023/12/07 02:16:54;;;;;;;0.67;0.67;;;-1.60;99.90;0.70;96590.00;;;;5002082;28;20438;-86
2023/12/07 02:20:05;;;;;;;0.60;0.60;;;-1.60;99.90;0.30;96587.00;;;;4998963;28;20444;-87
2023/12/07 02:22:57;;;;;;;0.80;0.80;;;-1.60;99.90;0.30;96582.00;;;;5001150;28;20456;-87
2023/12/07 02:25:53;;;;;;;0.60;0.60;;;-1.70;99.90;0.60;96591.00;;;;4996878;28;20480;-87
2023/12/07 02:28:43;;;;;;;0.60;0.60;;;-1.70;99.90;0.80;96594.00;;;;5004963;28;20449;-88
2023/12/07 02:31:33;;;;;;;0.80;0.80;;;-1.70;99.90;0.90;96602.00;;;;5008825;28;20460;-87
2023/12/07 02:34:22;;;;;;;0.50;0.50;;;-1.70;99.90;0.70;96586.00;;;;5005884;28;20422;-88
2023/12/07 02:37:11;;;;;;;0.60;0.60;;;-1.70;99.90;0.30;96603.00;;;;4999795;28;20437;-87
2023/12/07 02:40:00;;;;;;;0.63;0.63;;;-3.00;99.90;0.30;96599.00;;;;5002020;28;20453;-88
2023/12/07 02:42:49;;;;;;;0.77;0.77;;;-1.90;99.90;0.60;96598.00;;;;5001158;28;20740;-87
2023/12/07 02:45:40;;;;;;;0.73;0.73;;;-1.90;99.90;0.40;96617.00;;;;4996599;28;20430;-88
2023/12/07 02:48:30;;;;;;;0.60;0.60;;;-2.00;99.90;0.30;96616.00;;;;4998706;28;20433;-88
2023/12/07 02:51:19;;;;;;;0.70;0.70;;;-2.00;99.90;0.60;96617.00;;;;5000598;28;20448;-88
2023/12/07 02:54:08;;;;;;;0.50;0.50;;;-2.00;99.90;0.40;96619.00;;;;5004375;28;20804;-88
2023/12/07 02:56:57;;;;;;;0.73;0.73;;;-2.00;99.90;0.40;96634.00;;;;4993638;28;20430;-87
2023/12/07 02:59:46;;;;;;;0.60;0.60;;;-2.00;99.90;0.20;96624.00;;;;4996011;28;20434;-88
2023/12/07 03:02:37;;;;;;;0.57;0.57;;;-2.10;99.90;0.40;96632.00;;;;5005943;28;20438;-88
2023/12/07 03:05:26;;;;;;;0.67;0.67;;;-2.10;99.90;0.10;96634.00;;;;5003088;28;20422;-86
2023/12/07 03:08:15;;;;;;;0.60;0.60;;;-2.20;99.90;0.40;96633.00;;;;4997433;28;20811;-86
2023/12/07 03:11:06;;;;;;;0.70;0.70;;;-2.20;99.90;0.00;96637.00;;;;5004544;28;20458;-86
2023/12/07 03:13:55;;;;;;;0.60;0.60;;;-2.30;99.90;0.10;96626.00;;;;4995251;28;20426;-87
2023/12/07 03:16:44;;;;;;;0.60;0.60;;;-2.20;99.90;0.20;96633.00;;;;4996745;28;20453;-86
2023/12/07 03:19:34;;;;;;;0.80;0.80;;;-2.20;99.90;0.20;96647.00;;;;4998037;28;20434;-86
2023/12/07 03:22:24;;;;;;;0.60;0.60;;;-2.90;99.90;0.20;96641.00;;;;5003369;28;20786;-87
2023/12/07 03:25:13;;;;;;;0.50;0.50;;;-2.20;99.90;0.40;96643.00;;;;4998710;28;20425;-86
2023/12/07 03:28:02;;;;;;;0.57;0.57;;;-0.90;99.90;-0.30;96643.00;;;;5001679;28;20512;-86
2023/12/07 03:30:51;;;;;;;0.80;0.80;;;-2.20;99.90;0.20;96651.00;;;;5001871;28;20446;-86
2023/12/07 03:33:42;;;;;;;0.60;0.60;;;-2.20;99.90;0.20;96650.00;;;;4998733;28;20827;-86
2023/12/07 03:36:32;;;;;;;0.53;0.53;;;-2.20;99.90;0.40;96655.00;;;;5001817;28;20418;-86
2023/12/07 03:39:22;;;;;;;0.50;0.50;;;-2.20;99.90;0.30;96653.00;;;;5003016;28;20429;-86
2023/12/07 03:42:11;;;;;;;0.70;0.70;;;-2.10;99.90;0.00;96646.00;;;;5005931;28;20453;-87
2023/12/07 03:45:00;;;;;;;0.70;0.70;;;-2.20;99.90;0.10;96643.00;;;;4999706;28;20445;-86
2023/12/07 03:47:49;;;;;;;0.63;0.63;;;-2.20;99.90;0.20;96647.00;;;;5003110;28;20465;-86
2023/12/07 03:50:38;;;;;;;0.80;0.80;;;-2.20;99.90;0.30;96647.00;;;;5000227;28;20486;-85
2023/12/07 03:53:28;;;;;;;0.60;0.60;;;-2.20;99.90;0.20;96651.00;;;;5004718;28;20429;-86
2023/12/07 03:56:25;;;;;;;0.60;0.60;;;-2.20;99.90;0.30;96657.00;;;;5011885;23;20497;-86
2023/12/07 03:59:14;;;;;;;0.63;0.63;;;-2.20;99.90;0.30;96668.00;;;;4998868;28;20426;-83
2023/12/07 04:02:02;;;;;;;0.70;0.70;;;-2.20;99.90;0.30;96666.00;;;;5000808;28;20449;-85
2023/12/07 04:04:51;;;;;;;0.63;0.63;;;-2.20;99.90;0.10;96671.00;;;;4998494;28;20503;-87
2023/12/07 04:07:41;;;;;;;0.70;0.70;;;-2.20;99.90;0.00;96667.00;;;;4977019;28;20473;-85
2023/12/07 04:10:31;;;;;;;0.70;0.70;;;-2.20;99.90;0.20;96671.00;;;;4980929;28;20427;-85
2023/12/07 04:13:20;;;;;;;0.70;0.70;;;-2.20;99.90;0.30;96676.00;;;;4974325;28;20941;-83
2023/12/07 04:16:09;;;;;;;0.50;0.50;;;-2.20;99.90;0.20;96684.00;;;;4984358;28;20470;-87
2023/12/07 04:18:58;;;;;;;0.60;0.60;;;-2.20;99.90;-0.10;96678.00;;;;4980361;28;20461;-87
2023/12/07 04:21:47;;;;;;;0.53;0.53;;;-2.30;99.90;0.10;96681.00;;;;4978974;28;20996;-86
2023/12/07 04:24:36;;;;;;;0.63;0.63;;;-2.30;99.90;-0.10;96678.00;;;;4983373;28;20431;-86
2023/12/07 04:27:26;;;;;;;0.60;0.60;;;-2.30;99.90;-0.30;96680.00;;;;4980891;28;20462;-86
2023/12/07 04:30:15;;;;;;;0.60;0.60;;;-2.30;99.90;0.00;96701.00;;;;4982801;28;20936;-86
2023/12/07 04:33:04;;;;;;;0.50;0.50;;;-2.30;99.90;0.20;96676.00;;;;4981452;28;20430;-87
2023/12/07 04:35:53;;;;;;;0.83;0.83;;;-2.30;99.90;0.20;96694.00;;;;4977701;28;20829;-87
2023/12/07 04:38:42;;;;;;;0.70;0.70;;;-2.20;99.90;-0.10;96703.00;;;;4971165;28;20431;-86
2023/12/07 04:41:31;;;;;;;0.60;0.60;;;-2.30;99.90;0.00;96701.00;;;;4978928;28;20481;-87
2023/12/07 04:44:21;;;;;;;0.50;0.50;;;-2.30;99.90;0.10;96696.00;;;;4980895;28;20439;-87
2023/12/07 04:47:10;;;;;;;0.50;0.50;;;-2.30;99.90;0.10;96697.00;;;;4977867;28;21182;-86
2023/12/07 04:49:59;;;;;;;0.53;0.53;;;-2.30;99.90;-0.30;96697.00;;;;4981054;28;20624;-86
2023/12/07 04:52:48;;;;;;;0.50;0.50;;;-2.30;99.90;0.10;96712.00;;;;4982341;28;20434;-88
2023/12/07 04:55:37;;;;;;;0.63;0.63;;;-2.30;99.90;0.10;96699.00;;;;4979841;28;20463;-87
2023/12/07 04:58:26;;;;;;;0.70;0.70;;;-2.30;99.90;0.00;96704.00;;;;4978907;28;20442;-86
2023/12/07 05:01:16;;;;;;;0.43;0.43;;;-2.30;99.90;0.00;96703.00;;;;4974073;28;20591;-87
2023/12/07 05:04:06;;;;;;;0.70;0.70;;;-2.40;99.90;0.00;96716.00;;;;4977981;28;20442;-86
2023/12/07 05:06:55;;;;;;;0.70;0.70;;;-2.40;99.90;0.00;96722.00;;;;4979584;28;20450;-86
2023/12/07 05:09:44;;;;;;;0.50;0.50;;;-2.40;99.90;0.00;96725.00;;;;4977206;28;20430;-87
2023/12/07 05:12:34;;;;;;;0.60;0.60;;;-2.30;99.90;-0.30;96709.00;;;;4967780;28;21346;-86
2023/12/07 05:15:26;;;;;;;0.70;0.70;;;-2.40;99.90;-0.20;96713.00;;;;4976793;28;20497;-88
2023/12/07 05:18:17;;;;;;;0.70;0.70;;;-2.40;99.90;0.10;96730.00;;;;4977217;28;20427;-86
2023/12/07 05:21:11;;;;;;;0.50;0.50;;;-2.40;99.90;0.20;96751.00;;;;4971565;28;20458;-87
2023/12/07 05:24:00;;;;;;;0.60;0.60;;;-2.30;99.90;0.20;96748.00;;;;4975858;28;20597;-88
2023/12/07 05:26:49;;;;;;;0.70;0.70;;;-2.20;99.90;0.10;96753.00;;;;4974453;28;20472;-86
2023/12/07 05:29:38;;;;;;;0.50;0.50;;;-2.30;99.90;0.20;96755.00;;;;4988882;28;20429;-86
2023/12/07 05:32:27;;;;;;;0.60;0.60;;;-2.20;99.90;0.10;96759.00;;;;4976488;28;21183;-87
2023/12/07 05:35:18;;;;;;;0.50;0.50;;;-2.20;99.90;0.20;96754.00;;;;4979401;28;20431;-87
2023/12/07 05:38:07;;;;;;;0.50;0.50;;;-2.20;99.90;0.20;96761.00;;;;4976078;28;20443;-86
2023/12/07 05:40:56;;;;;;;0.70;0.70;;;-2.30;99.90;0.10;96771.00;;;;4978027;28;20596;-87
2023/12/07 05:43:45;;;;;;;0.50;0.50;;;-2.30;99.90;0.20;96770.00;;;;4972217;28;20434;-86
2023/12/07 05:46:36;;;;;;;0.70;0.70;;;-2.30;99.90;0.00;96764.00;;;;4974821;28;20450;-87
2023/12/07 05:49:25;;;;;;;0.60;0.60;;;-2.30;99.90;0.10;96773.00;;;;4972939;28;20478;-87
2023/12/07 05:52:15;;;;;;;0.63;0.63;;;-2.30;99.90;0.30;96782.00;;;;4972038;28;20435;-85
2023/12/07 05:55:07;;;;;;;0.70;0.70;;;-2.20;99.90;-0.50;96769.00;;;;4981837;28;20466;-86
2023/12/07 05:57:57;;;;;;;0.70;0.70;;;-2.30;99.90;-0.50;96767.00;;;;4974982;28;20475;-87
2023/12/07 06:00:47;;;;;;;0.70;0.70;;;-2.40;99.90;0.10;96782.00;;;;4978897;28;20430;-87
2023/12/07 06:03:36;;;;;;;0.70;0.70;;;-2.30;99.90;0.40;96786.00;;;;5001222;28;20418;-89
2023/12/07 06:06:25;;;;;;;0.60;0.60;;;-2.20;99.90;0.40;96788.00;;;;4990894;28;20501;-89
2023/12/07 06:09:15;;;;;;;0.57;0.57;;;-2.20;99.90;0.40;96782.00;;;;4975910;28;20463;-88
2023/12/07 06:12:05;;;;;;;0.80;0.80;;;-2.20;99.90;0.40;96782.00;;;;4978291;28;20445;-87
2023/12/07 06:14:54;;;;;;;0.57;0.57;;;-2.10;99.90;-0.10;96777.00;;;;4981461;28;20447;-87
2023/12/07 06:17:44;;;;;;;0.60;0.60;;;-2.20;99.90;0.30;96782.00;;;;4974594;28;20442;-87
2023/12/07 06:20:33;;;;;;;0.57;0.57;;;-2.10;99.90;0.40;96791.00;;;;4982064;28;20463;-87
2023/12/07 06:23:22;;;;;;;0.57;0.57;;;-2.10;99.90;0.40;96784.00;;;;4986340;28;20443;-86
2023/12/07 06:26:12;;;;;;;0.70;0.70;;;-2.10;99.90;0.10;96786.00;;;;4981707;28;20447;-87
2023/12/07 06:29:01;;;;;;;0.63;0.63;;;-2.10;99.90;0.40;96794.00;;;;4980473;28;20487;-86
2023/12/07 06:31:50;;;;;;;0.60;0.60;;;-2.10;99.90;0.40;96799.00;;;;4978367;28;20943;-87
2023/12/07 06:34:42;;;;;;;0.60;0.60;;;-2.10;99.90;0.30;96801.00;;;;4975984;28;20441;-87
2023/12/07 06:37:31;;;;;;;0.60;0.60;;;-2.10;99.90;0.40;96803.00;;;;4979320;28;20435;-86
2023/12/07 06:40:21;;;;;;;0.80;0.80;;;-2.10;99.90;0.40;96795.00;;;;4979989;28;20419;-88
2023/12/07 06:43:11;;;;;;;0.70;0.70;;;-2.10;99.90;0.20;96796.00;;;;4981330;28;20944;-87
2023/12/07 06:46:00;;;;;;;0.40;0.40;;;-2.10;99.90;0.30;96801.00;;;;4983209;28;20457;-86
2023/12/07 06:48:50;;;;;;;0.57;0.57;;;-2.10;99.90;0.40;96796.00;;;;4979868;28;21311;-86
2023/12/07 06:51:39;;;;;;;0.50;0.50;;;-2.10;99.90;-0.10;96798.00;;;;4983494;28;21006;-86
2023/12/07 06:54:27;;;;;;;0.60;0.60;;;-2.20;99.90;0.20;96795.00;;;;4984285;28;20826;-88
2023/12/07 06:57:16;;;;;;;0.60;0.60;;;-2.20;99.90;0.30;96806.00;;;;4973154;28;20821;-86
2023/12/07 07:00:10;;;;;;;0.60;0.60;;;-2.10;99.90;0.40;96807.00;;;;4971479;28;20470;-87
2023/12/07 07:02:59;;;;;;;0.60;0.60;;;-2.10;99.90;0.20;96805.00;;;;4969560;28;20467;-87
2023/12/07 07:05:48;;;;;;;0.57;0.57;;;-2.10;99.90;0.50;96823.00;;;;4976126;28;20984;-88
2023/12/07 07:08:37;;;;;;;0.50;0.50;;;-2.10;99.90;0.60;96816.00;;;;4969713;28;20978;-86
2023/12/07 07:11:26;;;;;;;0.70;0.70;;;-2.10;99.90;0.50;96818.00;;;;4965022;28;20873;-87
2023/12/07 07:14:15;;;;;;;0.70;0.70;;;-2.00;99.90;0.60;96818.00;;;;4970269;28;20458;-87
2023/12/07 07:17:06;;;;;;;0.70;0.70;;;-1.90;99.90;0.60;96830.00;;;;4967118;28;20458;-87
2023/12/07 07:19:55;;;;;;;0.90;0.90;;;-1.90;99.90;0.70;96831.00;;;;4967936;28;20454;-87
2023/12/07 07:22:45;;;;;;;0.80;0.80;;;-1.80;99.90;0.70;96827.00;;;;4963168;28;20447;-87
2023/12/07 07:25:34;;;;;;;0.80;0.80;;;-1.80;99.90;0.80;96823.00;;;;4964771;28;20865;-89
2023/12/07 07:28:23;;;;;;;0.80;0.80;;;-1.80;99.90;0.90;96835.00;;;;4964392;28;20481;-88
2023/12/07 07:31:12;;;;;;;0.80;0.80;;;-1.70;99.90;1.20;96837.00;;;;4962154;28;20521;-87
2023/12/07 07:34:02;;;;;;;0.73;0.73;;;-1.60;99.90;1.20;96844.00;;;;4966318;28;20476;-86
2023/12/07 07:36:51;;;;;;;0.50;0.50;;;-1.60;99.90;1.30;96839.00;;;;4977560;28;20545;-88
2023/12/07 07:39:43;;;;;;;0.70;0.70;;;-1.50;99.90;1.50;96842.00;;;;4976778;28;20425;-87
2023/12/07 07:42:32;;;;;;;1.00;1.00;;;-1.50;99.90;1.10;96836.00;;;;4973312;28;20451;-89
2023/12/07 07:45:21;;;;;;;0.60;0.60;;;-1.40;99.90;1.20;96851.00;;;;4976708;28;20450;-87
2023/12/07 07:48:10;;;;;;;0.57;0.57;;;-1.40;99.90;1.50;96848.00;;;;4977083;28;20438;-87
2023/12/07 07:51:01;;;;;;;0.80;0.80;;;-1.30;99.90;1.60;96843.00;;;;4974967;28;20437;-88
2023/12/07 07:53:50;;;;;;;0.53;0.53;;;-1.30;99.90;1.10;96845.00;;;;4976234;28;20453;-88
2023/12/07 07:56:38;;;;;;;0.60;0.60;;;-1.30;99.90;1.10;96854.00;;;;4979272;28;20457;-88
2023/12/07 07:59:27;;;;;;;0.70;0.70;;;-1.30;99.90;1.50;96855.00;;;;4973435;28;20443;-88
2023/12/07 08:02:16;;;;;;;0.60;0.60;;;-1.20;99.90;1.40;96859.00;;;;4973768;28;20446;-87
2023/12/07 08:05:06;;;;;;;0.53;0.53;;;-1.20;99.90;1.80;96861.00;;;;4975376;28;20967;-89
2023/12/07 08:07:56;;;;;;;0.80;0.80;;;-1.10;99.90;1.70;96864.00;;;;4972546;28;20497;-89
2023/12/07 08:10:46;;;;;;;0.60;0.60;;;-1.00;99.90;1.80;96856.00;;;;4972614;28;20419;-88
2023/12/07 08:13:34;;;;;;;0.60;0.60;;;-1.00;99.90;1.80;96850.00;;;;4974837;28;20445;-88
2023/12/07 08:16:24;;;;;;;0.50;0.50;;;-0.90;99.90;2.20;96854.00;;;;4973546;28;20455;-87
2023/12/07 08:19:13;;;;;;;0.80;0.80;;;-0.80;99.90;1.40;96865.00;;;;4979618;28;20409;-87
2023/12/07 08:22:02;;;;;;;0.60;0.60;;;-0.90;99.90;1.90;96871.00;;;;4988565;28;20459;-89
2023/12/07 08:24:52;;;;;;;0.67;0.67;;;-1.00;99.90;1.80;96864.00;;;;4999637;28;20453;-88
2023/12/07 08:27:44;;;;;;;0.50;0.50;;;-0.90;99.90;1.20;96865.00;;;;4979543;28;20477;-88
2023/12/07 08:30:33;;;;;;;0.50;0.50;;;-1.00;99.90;2.00;96869.00;;;;4972932;28;20474;-88
2023/12/07 08:33:22;;;;;;;0.50;0.50;;;-0.90;99.90;2.30;96868.00;;;;4973978;28;20442;-88
2023/12/07 08:36:11;;;;;;;0.60;0.60;;;-0.70;99.90;1.40;96867.00;;;;4978384;28;20964;-88
2023/12/07 08:39:00;;;;;;;0.60;0.60;;;-0.80;99.90;2.00;96867.00;;;;4970998;28;20431;-87
2023/12/07 08:41:51;;;;;;;0.73;0.73;;;-0.70;99.90;1.80;96871.00;;;;4973197;28;20430;-87
2023/12/07 08:44:40;;;;;;;0.80;0.80;;;-0.70;99.90;1.80;96875.00;;;;4967395;28;20935;-87
2023/12/07 08:47:31;;;;;;;0.50;0.50;;;-0.70;99.90;1.60;96871.00;;;;4968231;28;20448;-87
2023/12/07 08:50:20;;;;;;;0.53;0.53;;;-0.60;99.90;2.40;96887.00;;;;4970376;28;20987;-87
2023/12/07 08:53:09;;;;;;;0.70;0.70;;;-0.50;99.90;2.10;96880.00;;;;4969692;28;20416;-87
2023/12/07 08:55:59;;;;;;;0.80;0.80;;;-0.40;99.90;1.90;96869.00;;;;4969063;28;20843;-88
2023/12/07 08:58:51;;;;;;;0.60;0.60;;;-0.50;99.90;2.70;96874.00;;;;4975711;28;21090;-87
2023/12/07 09:01:40;;;;;;;0.60;0.60;;;-0.30;99.90;2.10;96878.00;;;;4985864;28;20454;-88
2023/12/07 09:04:30;;;;;;;0.60;0.60;;;-0.10;99.90;2.30;96879.00;;;;4983496;28;20967;-88
2023/12/07 09:07:19;;;;;;;0.60;0.60;;;-0.10;99.90;2.70;96882.00;;;;4980989;28;20446;-88
2023/12/07 09:10:10;;;;;;;0.50;0.50;;;0.00;99.90;3.40;96896.00;;;;4982742;28;20987;-88
2023/12/07 09:13:00;;;;;;;0.83;0.83;;;0.20;99.90;2.70;96898.00;;;;4980326;28;21156;-87
2023/12/07 09:15:51;;;;;;;0.70;0.70;;;0.30;99.90;2.40;96886.00;;;;4979139;28;20454;-88
2023/12/07 09:18:42;;;;;;;0.60;0.60;;;0.30;99.90;2.40;96893.00;;;;4983591;28;20422;-87
2023/12/07 09:21:31;;;;;;;0.50;0.50;;;0.30;99.90;2.80;96897.00;;;;4989742;28;20423;-87
2023/12/07 09:24:21;;;;;;;0.50;0.50;;;0.40;99.90;3.30;96906.00;;;;4990660;28;20443;-87
2023/12/07 09:27:11;;;;;;;0.60;0.60;;;0.50;99.90;3.20;96890.00;;;;4979092;28;20504;-87
2023/12/07 09:30:00;;;;;;;0.93;0.93;;;0.70;99.90;2.80;96884.00;;;;4978894;28;20467;-87
2023/12/07 09:32:51;;;;;;;0.77;0.77;;;0.70;99.90;2.40;96881.00;;;;4968847;28;20434;-86
2023/12/07 09:35:41;;;;;;;0.60;0.60;;;0.60;99.90;3.00;96889.00;;;;4970203;28;20952;-86
2023/12/07 09:38:30;;;;;;;0.70;0.70;;;0.70;99.90;3.90;96894.00;;;;4979325;28;20974;-87
2023/12/07 09:41:20;;;;;;;0.50;0.50;;;0.80;99.90;4.50;96889.00;;;;4991292;28;20443;-88
2023/12/07 09:44:09;;;;;;;0.80;0.80;;;1.10;99.90;3.90;96891.00;;;;4987420;28;20442;-87
2023/12/07 09:46:59;;;;;;;0.80;0.80;;;1.20;99.90;4.20;96884.00;;;;4976806;28;20443;-89
2023/12/07 09:49:50;;;;;;;0.60;0.60;;;1.30;99.90;3.30;96884.00;;;;4978477;28;20469;-88
2023/12/07 09:52:40;;;;;;;0.60;0.60;;;1.30;99.90;3.60;96869.00;;;;4974860;28;20443;-84
2023/12/07 09:55:33;;;;;;;0.70;0.70;;;1.40;99.90;3.10;96878.00;;;;4984550;28;20459;-86
2023/12/07 09:58:22;;;;;;;0.80;0.80;;;1.30;99.90;4.30;96871.00;;;;4985160;28;20454;-86
2023/12/07 10:01:14;;;;;;;0.80;0.80;;;1.40;99.90;3.90;96868.00;;;;4970835;28;20431;-84
2023/12/07 10:04:25;;;;;;;0.87;0.87;;;1.50;99.90;4.60;96862.00;;;;4969237;28;20439;-84
2023/12/07 10:07:16;;;;;;;0.50;0.50;;;1.60;99.90;3.40;96854.00;;;;4977035;28;20451;-85
2023/12/07 10:10:07;;;;;;;0.60;0.60;;;1.70;99.90;3.70;96854.00;;;;4975918;28;20473;-87
2023/12/07 10:12:57;;;;;;;0.60;0.60;;;1.70;99.90;4.10;96844.00;;;;4971808;28;20439;-84
2023/12/07 10:15:46;;;;;;;0.70;0.70;;;1.90;99.90;4.40;96856.00;;;;4973182;28;20450;-86
2023/12/07 10:18:35;;;;;;;0.60;0.60;;;2.20;99.90;5.40;96849.00;;;;4975681;28;20445;-86
2023/12/07 10:21:33;;;;;;;0.70;0.70;;;3.20;99.90;4.80;96841.00;;;;4978833;28;20242;-88
2023/12/07 10:24:26;;;;;;;0.70;0.70;;;4.10;99.90;4.50;96828.00;;;;4979600;28;20195;-88
2023/12/07 10:27:15;;;;;;;0.83;0.83;;;4.40;99.90;4.50;96837.00;;;;4976543;28;20661;-88
2023/12/07 10:30:06;;;;;;;0.73;0.73;;;4.50;99.90;5.70;96852.00;;;;4975496;28;20731;-89
2023/12/07 10:32:55;;;;;;;0.63;0.63;;;4.70;99.90;4.80;96843.00;;;;4976065;28;20431;-88
2023/12/07 10:35:44;;;;;;;0.77;0.77;;;4.90;99.90;5.70;96850.00;;;;4980769;28;20231;-88
2023/12/07 10:38:33;;;;;;;0.50;0.50;;;5.00;99.90;5.50;96848.00;;;;4975518;28;20207;-89
2023/12/07 10:41:25;;;;;;;0.60;0.60;;;5.10;99.90;5.80;96844.00;;;;4978740;28;20204;-88
2023/12/07 10:44:17;;;;;;;0.67;0.67;;;5.40;99.90;6.70;96856.00;;;;4996453;28;20240;-90
2023/12/07 10:47:10;;;;;;;1.00;1.00;;;5.70;99.90;5.90;96847.00;;;;4994878;28;20192;-89
2023/12/07 10:50:04;;;;;;;0.70;0.70;;;6.00;99.90;6.30;96850.00;;;;4982663;28;21035;-88
2023/12/07 10:52:56;;;;;;;0.60;0.60;;;6.20;99.90;7.00;96843.00;;;;4981829;28;20210;-89
2023/12/07 10:55:54;;;;;;;0.90;0.90;;;6.40;99.90;8.20;96850.00;;;;4976747;28;20246;-87
2023/12/07 10:58:46;;;;;;;0.80;0.80;;;6.80;99.90;7.50;96849.00;;;;4969701;28;20204;-87
2023/12/07 11:01:36;;;;;;;0.77;0.77;;;7.10;99.90;7.80;96859.00;;;;4978261;28;20226;-88
2023/12/07 11:04:26;;;;;;;0.60;0.60;;;7.50;99.90;6.80;96849.00;;;;4979088;28;20243;-88
2023/12/07 11:07:19;;;;;;;0.70;0.70;;;7.20;99.90;6.80;96841.00;;;;4977325;28;20207;-89
2023/12/07 11:10:17;;;;;;;0.97;0.97;;;6.80;99.90;9.10;96854.00;;;;4980079;28;20222;-88
2023/12/07 11:13:15;;;;;;;0.87;0.87;;;7.10;99.90;8.90;96860.00;;;;4973937;28;20207;-87
2023/12/07 11:16:06;;;;;;;1.00;1.00;;;7.80;99.90;7.30;96847.00;;;;4978194;28;20241;-88
2023/12/07 11:18:55;;;;;;;0.57;0.57;;;7.50;99.90;7.20;96842.00;;;;4979775;28;20595;-89
2023/12/07 11:21:44;;;;;;;0.77;0.77;;;7.40;99.90;9.10;96864.00;;;;4976949;28;20223;-89
2023/12/07 11:24:33;;;;;;;0.60;0.60;;;7.60;99.90;8.60;96860.00;;;;4979131;28;20211;-91
2023/12/07 11:27:23;;;;;;;1.83;1.50;;;7.80;99.90;8.50;96854.00;;;;4979755;28;20199;-90
2023/12/07 11:30:14;;;;;;;3.37;2.30;;;8.00;99.90;8.70;96866.00;;;;4979067;28;20705;-91
2023/12/07 11:33:07;;;;;;;4.80;2.23;;;8.00;99.90;9.00;96859.00;;;;4984196;28;20382;-91
2023/12/07 11:36:08;;;;;;;6.50;2.87;;;8.40;99.90;8.30;96856.00;;;;4972766;28;20230;-91
2023/12/07 11:39:26;;;;;;;4.05;1.95;;;8.30;99.90;9.60;96864.00;;;;4972786;28;20199;-91
2023/12/07 11:42:18;;;;;;;6.43;2.80;;;8.20;99.90;9.60;96868.00;;;;4955098;28;20812;-90
2023/12/07 11:45:08;;;;;;;7.30;3.47;;;8.40;99.90;9.30;96861.00;;;;4974801;28;20219;-89
2023/12/07 11:48:12;;;;;;;4.80;2.23;;;8.50;99.90;9.80;96865.00;;;;4980088;28;20544;-90
2023/12/07 11:51:04;;;;;;;7.73;3.60;;;8.50;99.80;11.40;96873.00;;;;4976280;28;20626;-91
2023/12/07 11:53:53;;;;;;;5.30;2.30;;;8.80;99.90;10.70;96863.00;;;;4980209;28;20206;-88
2023/12/07 11:56:43;;;;;;;6.43;2.67;;;9.20;99.90;11.20;96867.00;;;;4972673;28;20604;-90
2023/12/07 11:59:33;;;;;;;3.73;1.70;;;9.40;99.90;12.60;96876.00;;;;4979791;28;20207;-88
2023/12/07 12:02:22;;;;;;;9.27;3.63;;;9.90;99.90;11.00;96867.00;;;;4975097;28;20233;-87
2023/12/07 12:05:13;;;;;;;11.33;4.20;;;10.30;99.90;12.10;96877.00;;;;4978219;28;20231;-87
2023/12/07 12:08:01;;;;;;;13.37;4.77;;;10.40;99.80;12.10;96873.00;;;;4975440;28;20207;-86
2023/12/07 12:10:53;;;;;;;10.50;3.53;;;10.70;98.70;11.80;96869.00;;;;4977448;28;20210;-86
2023/12/07 12:13:42;;;;;;;5.30;1.87;;;10.90;96.90;12.50;96865.00;;;;4973500;28;20195;-85
2023/12/07 12:16:31;;;;;;;5.10;2.00;;;11.00;97.00;12.50;96865.00;;;;4979973;28;20258;-89
2023/12/07 12:19:21;;;;;;;10.57;3.90;;;11.10;96.90;13.50;96871.00;;;;4982349;28;20226;-86
2023/12/07 12:22:12;;;;;;;14.77;5.40;;;11.50;96.40;11.90;96858.00;;;;4982688;28;20222;-85
2023/12/07 12:25:01;;;;;;;10.83;4.23;;;11.00;96.10;13.60;96863.00;;;;4999168;28;20221;-86
2023/12/07 12:27:52;;;;;;;4.93;2.10;;;11.10;96.20;12.10;96849.00;;;;4980955;28;20218;-86
2023/12/07 12:30:42;;;;;;;6.27;2.90;;;11.40;94.40;9.80;96848.00;;;;4969405;28;20589;-86
2023/12/07 12:33:32;;;;;;;3.77;1.90;;;10.70;91.00;10.50;96847.00;;;;4982137;28;20211;-88
2023/12/07 12:36:23;;;;;;;2.83;1.50;;;10.30;93.70;9.20;96834.00;;;;4972429;28;20219;-85
2023/12/07 12:39:13;;;;;;;8.73;4.57;;;9.60;95.80;9.10;96848.00;;;;4976225;28;20215;-87
2023/12/07 12:42:05;;;;;;;5.63;3.13;;;8.90;95.90;9.00;96849.00;;;;4973293;28;20242;-88
2023/12/07 12:44:54;;;;;;;2.90;1.53;;;8.40;97.00;9.40;96845.00;;;;4977594;28;20230;-88